Time;durP1;ratioP1;P1;durP2;ratioP2;P2;SDS_P1;SDS_P2;PMS_P1;PMS_P2;Temp;Humidity;BMP_temperature;BMP_pressure;BME280_temperature;BME280_humidity;BME280_pressure;Samples;Min_cycle;Max_cycle;Signal;HPM_P1;HPM_P2
2021/05/06 00:01:03;;;;;;;6.55;1.27;;;11.90;39.50;;;;;;4385131;32;20205;-34
2021/05/06 00:33:19;;;;;;;7.50;1.40;;;11.20;41.20;;;;;;4370686;32;20100;-31
2021/05/06 00:35:48;;;;;;;5.65;1.40;;;11.10;41.20;;;;;;4370420;32;20483;-37
2021/05/06 00:38:18;;;;;;;9.35;1.87;;;11.10;41.60;;;;;;4371025;32;20157;-31
2021/05/06 01:05:07;;;;;;;13.52;3.53;;;11.70;41.70;;;;;;4371291;32;20098;-31
2021/05/06 01:10:32;;;;;;;7.22;1.42;;;11.90;41.70;;;;;;4374499;32;20138;-32
2021/05/06 01:12:58;;;;;;;6.22;1.77;;;12.00;41.90;;;;;;4375615;32;20431;-31
2021/05/06 01:15:25;;;;;;;4.43;1.37;;;12.10;41.60;;;;;;4374635;32;20074;-32
2021/05/06 01:17:57;;;;;;;6.78;1.60;;;12.10;41.60;;;;;;4386101;32;20149;-32
2021/05/06 01:20:24;;;;;;;3.08;1.23;;;12.20;41.70;;;;;;4389633;32;20151;-31
2021/05/06 01:22:50;;;;;;;8.20;1.58;;;12.20;41.60;;;;;;4372597;32;20074;-31
2021/05/06 01:25:17;;;;;;;12.18;1.58;;;12.20;41.50;;;;;;4360728;32;20073;-33
2021/05/06 01:27:55;;;;;;;7.30;1.30;;;12.30;41.60;;;;;;4372788;32;20062;-33
2021/05/06 01:30:34;;;;;;;8.40;2.30;;;12.30;41.60;;;;;;4373490;32;20076;-31
2021/05/06 01:33:08;;;;;;;4.60;1.45;;;12.40;41.70;;;;;;4373352;32;20108;-35
2021/05/06 01:35:44;;;;;;;3.90;1.42;;;12.40;41.70;;;;;;4373277;32;20085;-32
2021/05/06 01:38:34;;;;;;;8.25;1.65;;;12.50;41.60;;;;;;4373182;32;20076;-34
2021/05/06 01:49:22;;;;;;;8.13;1.30;;;12.80;41.30;;;;;;4372675;32;20537;-36
2021/05/06 01:57:36;;;;;;;4.75;1.45;;;12.90;41.00;;;;;;4372677;32;20072;-31
2021/05/06 02:00:15;;;;;;;5.55;1.27;;;13.00;40.90;;;;;;4379781;32;20086;-32
2021/05/06 02:02:43;;;;;;;3.20;1.45;;;13.00;41.50;;;;;;4376991;32;20065;-33
2021/05/06 02:05:10;;;;;;;4.00;1.33;;;13.10;40.80;;;;;;4390642;32;20146;-31
2021/05/06 02:07:39;;;;;;;5.37;1.90;;;13.10;40.70;;;;;;4389867;32;20495;-30
2021/05/06 02:10:07;;;;;;;5.95;1.67;;;13.20;40.70;;;;;;4390062;32;20169;-34
2021/05/06 02:12:33;;;;;;;2.78;1.10;;;13.20;40.80;;;;;;4376150;32;20097;-31
2021/05/06 02:15:10;;;;;;;5.82;1.48;;;13.20;40.60;;;;;;4388575;32;20073;-31
2021/05/06 02:17:36;;;;;;;2.97;1.40;;;13.20;40.70;;;;;;4381658;32;20524;-32
2021/05/06 02:20:05;;;;;;;5.37;1.52;;;13.20;40.70;;;;;;4374855;32;20050;-33
2021/05/06 02:22:32;;;;;;;8.80;1.92;;;13.20;40.80;;;;;;4374421;32;20070;-35
2021/05/06 02:24:59;;;;;;;4.65;1.67;;;13.30;40.80;;;;;;4374906;32;20082;-36
2021/05/06 02:27:26;;;;;;;1.90;1.05;;;13.30;40.70;;;;;;4374952;32;20074;-32
2021/05/06 02:29:53;;;;;;;18.40;3.40;;;13.40;40.60;;;;;;4373306;32;20119;-33
2021/05/06 02:32:19;;;;;;;3.65;1.67;;;13.40;40.60;;;;;;4374755;32;20072;-34
2021/05/06 02:34:46;;;;;;;2.80;1.10;;;13.50;40.40;;;;;;4374702;32;20057;-30
2021/05/06 02:37:13;;;;;;;3.78;1.42;;;13.50;40.40;;;;;;4373681;32;20062;-32
2021/05/06 02:39:39;;;;;;;4.43;1.37;;;13.70;40.30;;;;;;4374238;32;20074;-32
2021/05/06 02:42:06;;;;;;;3.00;0.82;;;14.00;40.40;;;;;;4374466;32;20204;-32
2021/05/06 02:44:36;;;;;;;2.45;1.05;;;14.30;40.00;;;;;;4372984;32;20074;-31
2021/05/06 02:47:04;;;;;;;2.50;1.20;;;14.60;39.60;;;;;;4374345;32;20062;-31
2021/05/06 02:49:30;;;;;;;3.78;1.23;;;15.10;39.00;;;;;;4372812;32;20555;-31
2021/05/06 02:52:05;;;;;;;6.10;1.35;;;15.40;38.10;;;;;;4373281;32;20065;-30
2021/05/06 02:54:37;;;;;;;4.97;1.10;;;15.60;37.40;;;;;;4373075;32;20054;-31
2021/05/06 02:57:22;;;;;;;4.95;1.25;;;15.90;37.00;;;;;;4374418;32;20146;-30
2021/05/06 03:02:49;;;;;;;3.78;1.67;;;16.20;36.00;;;;;;4372925;32;21928;-29
2021/05/06 03:05:17;;;;;;;2.80;1.00;;;16.30;35.90;;;;;;4374550;32;20159;-30
2021/05/06 03:07:50;;;;;;;4.68;1.20;;;16.40;35.50;;;;;;4374348;32;20054;-31
2021/05/06 03:10:30;;;;;;;3.00;1.10;;;16.50;35.30;;;;;;4374526;32;20069;-32
2021/05/06 03:13:16;;;;;;;3.47;1.15;;;16.70;35.00;;;;;;4374500;32;20046;-32
2021/05/06 03:21:37;;;;;;;3.10;0.80;;;17.60;33.60;;;;;;4388008;32;20061;-32
2021/05/06 03:24:04;;;;;;;3.20;1.37;;;18.00;33.00;;;;;;4389339;32;20062;-33
2021/05/06 03:26:32;;;;;;;2.50;1.08;;;18.30;32.20;;;;;;4388812;32;20064;-31
2021/05/06 03:29:11;;;;;;;2.25;1.00;;;18.60;32.10;;;;;;4388444;32;20065;-32
2021/05/06 03:32:03;;;;;;;2.05;1.25;;;18.80;31.60;;;;;;4388964;32;20062;-32
2021/05/06 03:43:04;;;;;;;8.40;0.90;;;19.20;31.10;;;;;;4388703;32;20070;-32
2021/05/06 03:45:53;;;;;;;6.85;1.30;;;19.40;30.80;;;;;;4388070;32;20070;-32
2021/05/06 04:17:45;;;;;;;1.98;1.08;;;21.20;28.40;;;;;;4382524;32;20085;-36
2021/05/06 04:25:53;;;;;;;3.42;1.10;;;21.80;28.10;;;;;;4373331;32;20149;-34
2021/05/06 04:36:13;;;;;;;1.55;1.10;;;22.30;27.30;;;;;;4372724;32;20078;-33
2021/05/06 04:38:40;;;;;;;3.15;1.12;;;22.50;27.10;;;;;;4373113;32;20487;-35
2021/05/06 04:46:18;;;;;;;5.68;1.08;;;22.70;26.80;;;;;;4372673;32;20090;-34
2021/05/06 04:57:34;;;;;;;2.80;1.02;;;23.00;26.40;;;;;;4340057;33;20074;-34
2021/05/06 05:05:34;;;;;;;2.90;0.70;;;23.40;26.50;;;;;;4372617;32;20047;-35
2021/05/06 05:08:07;;;;;;;2.40;0.90;;;23.70;26.50;;;;;;4372584;32;20188;-36
2021/05/06 05:13:19;;;;;;;3.92;1.20;;;24.20;25.90;;;;;;4372350;32;20506;-34
2021/05/06 05:18:46;;;;;;;2.45;1.20;;;24.70;25.60;;;;;;4385888;32;20062;-35
2021/05/06 05:21:18;;;;;;;3.17;1.08;;;25.00;25.30;;;;;;4387709;32;20050;-34
2021/05/06 05:23:48;;;;;;;10.00;1.00;;;25.20;25.10;;;;;;4387449;32;20105;-37
2021/05/06 05:26:15;;;;;;;1.60;0.80;;;25.40;25.00;;;;;;4387220;32;20093;-39
2021/05/06 05:28:42;;;;;;;2.83;0.77;;;25.50;25.00;;;;;;4387722;32;20057;-40
2021/05/06 05:31:08;;;;;;;3.40;1.23;;;25.70;24.70;;;;;;4387679;32;20149;-37
2021/05/06 05:33:41;;;;;;;3.20;0.85;;;26.00;24.80;;;;;;4385704;32;20476;-40
2021/05/06 05:42:07;;;;;;;7.45;1.42;;;26.40;24.30;;;;;;4339977;33;20471;-40
2021/05/06 05:45:15;;;;;;;5.43;0.82;;;26.50;24.20;;;;;;4339857;33;20479;-36
2021/05/06 05:55:43;;;;;;;1.23;0.80;;;27.20;24.00;;;;;;4339652;33;20601;-42
2021/05/06 05:58:09;;;;;;;2.85;0.90;;;27.30;23.70;;;;;;4342609;33;20071;-39
2021/05/06 06:00:36;;;;;;;6.32;1.67;;;27.40;23.80;;;;;;4342223;33;20149;-41
2021/05/06 06:03:02;;;;;;;5.35;0.98;;;27.40;23.60;;;;;;4342662;33;20574;-38
2021/05/06 06:05:29;;;;;;;3.62;0.80;;;27.60;23.70;;;;;;4342624;33;20066;-41
2021/05/06 06:07:55;;;;;;;2.62;0.50;;;27.70;23.50;;;;;;4343077;33;20132;-41
2021/05/06 06:10:22;;;;;;;3.03;1.00;;;27.90;23.30;;;;;;4342328;33;20089;-43
2021/05/06 06:12:48;;;;;;;5.43;0.95;;;28.20;23.20;;;;;;4342502;33;20097;-43
2021/05/06 06:15:48;;;;;;;1.08;0.60;;;28.40;23.00;;;;;;4348653;32;20078;-38
2021/05/06 06:18:20;;;;;;;2.40;0.80;;;28.60;22.80;;;;;;4377485;32;20134;-42
2021/05/06 06:20:54;;;;;;;3.33;1.00;;;28.90;22.80;;;;;;4373099;32;20093;-41
2021/05/06 06:23:21;;;;;;;5.10;1.12;;;29.10;22.60;;;;;;4373207;32;20151;-42
2021/05/06 06:25:47;;;;;;;4.75;0.80;;;29.30;22.50;;;;;;4374366;32;20075;-43
2021/05/06 06:28:14;;;;;;;2.30;0.85;;;29.40;22.40;;;;;;4374441;32;20062;-43
2021/05/06 06:30:41;;;;;;;2.22;0.65;;;29.40;22.10;;;;;;4374427;32;20469;-43
2021/05/06 06:33:08;;;;;;;4.90;0.60;;;29.50;22.10;;;;;;4374506;32;20046;-44
2021/05/06 06:35:35;;;;;;;4.10;0.77;;;29.60;22.10;;;;;;4374535;32;20448;-41
2021/05/06 06:38:01;;;;;;;1.48;0.80;;;29.70;22.00;;;;;;4372903;32;20093;-42
2021/05/06 06:40:28;;;;;;;3.65;0.70;;;29.70;22.10;;;;;;4374625;32;20109;-42
2021/05/06 06:42:55;;;;;;;2.03;0.70;;;29.80;21.90;;;;;;4374585;32;20503;-41
2021/05/06 06:45:21;;;;;;;4.15;0.90;;;30.00;22.10;;;;;;4374250;32;20128;-43
2021/05/06 06:47:54;;;;;;;2.10;1.30;;;30.10;22.00;;;;;;4374441;32;20530;-43
2021/05/06 06:50:21;;;;;;;3.80;0.60;;;30.10;21.70;;;;;;4372660;32;20070;-43
2021/05/06 06:52:49;;;;;;;3.08;0.88;;;30.20;21.50;;;;;;4374701;32;20069;-44
2021/05/06 06:55:16;;;;;;;4.68;0.75;;;30.30;21.50;;;;;;4372986;32;20077;-43
2021/05/06 06:57:42;;;;;;;4.35;0.90;;;30.30;21.60;;;;;;4374332;32;20050;-43
2021/05/06 07:00:09;;;;;;;4.05;0.68;;;30.50;21.60;;;;;;4374330;32;20158;-43
2021/05/06 07:02:36;;;;;;;2.33;0.50;;;30.60;21.40;;;;;;4373955;32;20640;-41
2021/05/06 07:05:03;;;;;;;2.05;0.52;;;30.60;21.20;;;;;;4374246;32;20099;-42
2021/05/06 07:07:30;;;;;;;4.70;0.70;;;30.60;21.10;;;;;;4374189;32;20046;-43
2021/05/06 07:09:56;;;;;;;6.60;0.60;;;30.60;21.20;;;;;;4374224;32;20084;-42
2021/05/06 07:12:22;;;;;;;2.75;1.02;;;30.60;21.20;;;;;;4374202;32;20098;-42
2021/05/06 07:14:49;;;;;;;1.45;0.60;;;30.60;21.30;;;;;;4374287;32;20076;-42
2021/05/06 07:17:15;;;;;;;0.82;0.50;;;30.60;21.20;;;;;;4379747;32;20066;-43
2021/05/06 07:19:42;;;;;;;3.33;0.40;;;30.60;21.30;;;;;;4388902;32;20065;-42
2021/05/06 07:22:08;;;;;;;4.00;0.60;;;30.70;21.20;;;;;;4388779;32;20065;-43
2021/05/06 07:24:35;;;;;;;3.50;0.70;;;30.70;21.30;;;;;;4388594;32;20544;-42
2021/05/06 07:27:01;;;;;;;1.58;0.60;;;30.70;21.10;;;;;;4389036;32;20541;-40
2021/05/06 07:29:28;;;;;;;1.23;0.60;;;30.80;21.20;;;;;;4387520;32;20144;-42
2021/05/06 07:31:54;;;;;;;2.40;0.50;;;30.70;21.10;;;;;;4388684;32;20093;-41
2021/05/06 07:34:21;;;;;;;0.93;0.65;;;30.70;21.10;;;;;;4388986;32;20497;-42
2021/05/06 07:36:47;;;;;;;0.80;0.50;;;30.60;21.10;;;;;;4389040;32;20070;-41
2021/05/06 07:39:14;;;;;;;3.30;0.62;;;30.60;21.10;;;;;;4387458;32;20066;-42
2021/05/06 07:41:40;;;;;;;2.90;0.40;;;30.70;21.20;;;;;;4388705;32;20138;-42
2021/05/06 07:44:07;;;;;;;3.33;0.45;;;30.80;20.80;;;;;;4388652;32;20106;-42
2021/05/06 07:46:33;;;;;;;1.25;0.40;;;30.90;20.90;;;;;;4388717;32;20069;-40
2021/05/06 07:49:00;;;;;;;1.60;0.50;;;31.00;20.60;;;;;;4388851;32;20573;-42
2021/05/06 07:51:27;;;;;;;1.65;0.40;;;30.90;20.70;;;;;;4388389;32;20075;-42
2021/05/06 07:53:54;;;;;;;1.87;0.50;;;31.00;20.70;;;;;;4388474;32;20113;-41
2021/05/06 07:56:21;;;;;;;2.08;0.50;;;31.00;20.80;;;;;;4388350;32;20448;-42
2021/05/06 07:58:47;;;;;;;1.73;0.50;;;30.90;21.30;;;;;;4388133;32;20084;-42
2021/05/06 08:01:15;;;;;;;2.03;0.70;;;30.90;20.70;;;;;;4388555;32;20489;-41
2021/05/06 08:03:41;;;;;;;2.00;0.70;;;30.80;20.60;;;;;;4388132;32;20069;-40
2021/05/06 08:06:08;;;;;;;1.48;0.50;;;30.80;20.70;;;;;;4387990;32;20077;-42
2021/05/06 08:08:35;;;;;;;1.70;0.40;;;30.70;20.90;;;;;;4387957;32;20095;-40
2021/05/06 08:11:02;;;;;;;3.78;0.73;;;30.50;20.70;;;;;;4388245;32;20068;-43
2021/05/06 08:13:29;;;;;;;3.08;1.12;;;30.40;20.80;;;;;;4387165;32;20086;-41
2021/05/06 08:15:55;;;;;;;5.57;0.50;;;30.40;21.00;;;;;;4387940;32;20093;-42
2021/05/06 08:18:23;;;;;;;0.82;0.50;;;30.50;20.80;;;;;;4375389;32;20066;-41
2021/05/06 08:20:49;;;;;;;2.50;0.50;;;30.60;20.60;;;;;;4372665;32;20150;-41
2021/05/06 08:23:16;;;;;;;2.62;0.50;;;30.80;20.80;;;;;;4371467;32;20453;-40
2021/05/06 08:25:42;;;;;;;1.87;0.45;;;31.00;20.70;;;;;;4373046;32;20062;-41
2021/05/06 08:28:09;;;;;;;2.28;0.98;;;31.20;20.70;;;;;;4372941;32;20504;-41
2021/05/06 08:30:36;;;;;;;1.90;0.50;;;31.30;20.50;;;;;;4373084;32;20088;-37
2021/05/06 08:33:03;;;;;;;1.73;0.40;;;31.30;20.40;;;;;;4373202;32;20058;-41
2021/05/06 08:35:30;;;;;;;4.37;0.60;;;31.40;20.40;;;;;;4372882;32;20454;-41
2021/05/06 08:37:56;;;;;;;1.33;0.40;;;31.50;20.50;;;;;;4373044;32;20494;-42
2021/05/06 08:40:23;;;;;;;3.85;0.60;;;31.50;20.20;;;;;;4372752;32;20070;-42
2021/05/06 08:42:53;;;;;;;1.70;0.57;;;31.60;20.50;;;;;;4371118;32;20100;-40
2021/05/06 08:45:22;;;;;;;6.95;0.52;;;31.60;20.50;;;;;;4372993;32;20065;-42
2021/05/06 08:47:49;;;;;;;3.58;0.50;;;31.70;20.50;;;;;;4372546;32;20070;-42
2021/05/06 08:50:19;;;;;;;2.40;1.73;;;31.80;20.30;;;;;;4358650;32;20514;-41
2021/05/06 08:52:49;;;;;;;2.30;0.43;;;31.90;20.50;;;;;;4371256;32;20113;-40
2021/05/06 08:55:16;;;;;;;1.70;0.50;;;31.90;20.50;;;;;;4372825;32;20156;-44
2021/05/06 08:57:43;;;;;;;5.53;0.50;;;32.00;20.50;;;;;;4373003;32;20064;-41
2021/05/06 09:00:10;;;;;;;0.47;0.40;;;32.10;20.60;;;;;;4371565;32;20502;-40
2021/05/06 09:02:37;;;;;;;1.77;0.50;;;32.30;20.20;;;;;;4371028;32;20074;-37
2021/05/06 09:05:08;;;;;;;1.12;0.40;;;32.40;20.00;;;;;;4371096;32;20544;-42
2021/05/06 09:07:44;;;;;;;3.20;0.80;;;32.40;20.00;;;;;;4372812;32;20494;-43
2021/05/06 09:10:33;;;;;;;1.62;0.40;;;32.40;19.90;;;;;;4371308;32;20545;-41
2021/05/06 09:12:59;;;;;;;3.33;0.68;;;32.40;19.90;;;;;;4372497;32;20143;-41
2021/05/06 09:15:26;;;;;;;3.95;0.45;;;32.30;20.60;;;;;;4372878;32;20078;-40
2021/05/06 09:17:53;;;;;;;4.10;0.75;;;32.40;20.10;;;;;;4381940;32;20478;-39
2021/05/06 09:20:25;;;;;;;1.55;0.55;;;32.40;20.20;;;;;;4387556;32;20077;-42
2021/05/06 09:22:58;;;;;;;2.58;0.60;;;32.40;20.30;;;;;;4387560;32;20070;-43
2021/05/06 09:25:39;;;;;;;0.50;0.40;;;32.40;20.20;;;;;;4386210;32;20142;-41
2021/05/06 09:28:24;;;;;;;1.75;0.45;;;32.30;20.20;;;;;;4387566;32;20070;-42
2021/05/06 09:30:55;;;;;;;1.27;0.60;;;32.10;20.30;;;;;;4388131;32;20087;-43
2021/05/06 09:33:36;;;;;;;2.17;0.60;;;32.00;20.30;;;;;;4389106;32;20063;-42
2021/05/06 09:36:15;;;;;;;0.85;0.50;;;32.00;20.60;;;;;;4390010;32;20573;-42
2021/05/06 09:38:45;;;;;;;4.05;0.50;;;32.00;20.30;;;;;;4390581;32;20506;-41
2021/05/06 09:41:13;;;;;;;2.85;0.43;;;31.90;20.40;;;;;;4388481;32;20060;-41
2021/05/06 09:43:41;;;;;;;1.37;0.40;;;31.90;20.40;;;;;;4390504;32;20468;-35
2021/05/06 09:46:36;;;;;;;5.35;0.50;;;32.00;20.60;;;;;;4390568;32;20540;-41
2021/05/06 09:49:15;;;;;;;;;;;32.00;20.40;;;;;;4390343;32;20070;-43
2021/05/06 09:51:48;;;;;;;1.42;0.60;;;32.20;20.60;;;;;;4389859;32;19960;-41
2021/05/06 09:54:19;;;;;;;1.95;0.47;;;32.20;20.20;;;;;;4390082;32;20498;-42
2021/05/06 09:56:47;;;;;;;1.48;0.60;;;32.10;20.10;;;;;;4390222;32;20077;-43
2021/05/06 09:59:23;;;;;;;1.12;0.55;;;32.00;20.40;;;;;;4390119;32;20129;-41
2021/05/06 10:01:50;;;;;;;8.30;0.70;;;32.00;20.60;;;;;;4389543;32;20544;-40
2021/05/06 10:04:24;;;;;;;1.87;0.70;;;32.10;20.40;;;;;;4388701;32;20062;-41
2021/05/06 10:07:22;;;;;;;3.70;0.55;;;32.20;20.10;;;;;;4388679;32;20065;-43
2021/05/06 10:10:06;;;;;;;2.95;0.60;;;32.30;20.10;;;;;;4327986;33;20087;-42
2021/05/06 10:12:37;;;;;;;0.50;0.40;;;32.40;20.10;;;;;;4327888;33;20055;-42
2021/05/06 10:15:06;;;;;;;0.80;0.60;;;32.30;20.10;;;;;;4327880;33;20086;-42
2021/05/06 10:17:33;;;;;;;3.72;0.77;;;32.10;20.50;;;;;;4327517;33;20661;-41
2021/05/06 10:20:00;;;;;;;5.78;0.80;;;32.00;20.40;;;;;;4327673;33;20067;-42
2021/05/06 10:22:28;;;;;;;1.45;0.55;;;31.90;20.50;;;;;;4327675;33;20079;-40
2021/05/06 10:24:54;;;;;;;1.12;0.80;;;32.10;20.20;;;;;;4327511;33;20070;-42
2021/05/06 10:27:25;;;;;;;2.25;0.60;;;32.20;20.40;;;;;;4327531;33;20130;-42
2021/05/06 10:29:56;;;;;;;1.37;0.60;;;32.20;20.10;;;;;;4327900;33;20505;-41
2021/05/06 10:32:27;;;;;;;3.72;0.50;;;32.30;20.10;;;;;;4327615;33;20169;-40
2021/05/06 10:34:57;;;;;;;0.93;0.50;;;32.30;20.10;;;;;;4315940;33;20097;-40
2021/05/06 10:37:37;;;;;;;0.62;0.50;;;32.30;20.00;;;;;;4327849;33;20518;-41
2021/05/06 10:40:23;;;;;;;2.60;0.50;;;32.30;20.10;;;;;;4327500;33;20102;-42
2021/05/06 10:42:54;;;;;;;1.70;0.70;;;32.20;20.10;;;;;;4326485;33;20512;-41
2021/05/06 10:45:24;;;;;;;1.23;0.60;;;32.20;20.10;;;;;;4337070;32;20093;-40
2021/05/06 10:47:52;;;;;;;1.40;0.60;;;32.20;20.40;;;;;;4389385;32;20064;-42
2021/05/06 10:50:33;;;;;;;2.30;0.50;;;32.30;20.30;;;;;;4389078;32;20541;-41
2021/05/06 10:53:00;;;;;;;4.65;0.60;;;32.40;20.10;;;;;;4389401;32;20062;-41
2021/05/06 10:55:47;;;;;;;0.80;0.50;;;32.40;20.10;;;;;;4389473;32;20086;-41
2021/05/06 10:58:26;;;;;;;3.75;0.60;;;32.40;20.00;;;;;;4389491;32;20169;-35
2021/05/06 11:01:14;;;;;;;2.97;0.40;;;32.50;19.90;;;;;;4389501;32;20094;-42
2021/05/06 11:03:41;;;;;;;2.15;0.45;;;32.50;19.90;;;;;;4389304;32;20065;-42
2021/05/06 11:06:11;;;;;;;0.65;0.40;;;32.50;19.90;;;;;;4389356;32;20242;-42
2021/05/06 11:08:38;;;;;;;2.42;0.52;;;32.50;19.90;;;;;;4387685;32;20070;-42
2021/05/06 11:11:07;;;;;;;1.10;0.60;;;32.50;20.20;;;;;;4389146;32;20104;-40
2021/05/06 11:14:09;;;;;;;3.50;0.60;;;32.40;20.10;;;;;;4389453;32;20116;-40
2021/05/06 11:16:38;;;;;;;4.30;0.50;;;32.40;20.30;;;;;;4388928;32;20066;-41
2021/05/06 11:19:05;;;;;;;11.23;1.62;;;32.50;19.90;;;;;;4388721;32;20571;-41
2021/05/06 11:21:34;;;;;;;3.10;0.43;;;32.70;20.00;;;;;;4388886;32;20073;-42
2021/05/06 11:24:28;;;;;;;0.82;0.50;;;32.70;20.00;;;;;;4388836;32;20478;-42
2021/05/06 11:27:23;;;;;;;2.50;0.50;;;32.80;20.00;;;;;;4388802;32;20065;-41
2021/05/06 11:29:48;;;;;;;2.20;0.50;;;32.80;20.00;;;;;;4388628;32;20081;-41
2021/05/06 11:32:32;;;;;;;4.55;0.60;;;32.60;19.90;;;;;;4388985;32;20152;-40
2021/05/06 11:34:58;;;;;;;;;;;32.40;20.20;;;;;;4388826;32;20680;-40
2021/05/06 11:37:29;;;;;;;0.62;0.30;;;32.30;20.20;;;;;;4388752;32;20373;-42
2021/05/06 11:40:11;;;;;;;1.00;0.40;;;32.00;20.80;;;;;;4388459;32;20070;-38
2021/05/06 11:42:39;;;;;;;1.10;0.50;;;31.60;20.50;;;;;;4388709;32;20603;-41
2021/05/06 11:45:14;;;;;;;3.25;0.40;;;31.30;20.70;;;;;;4374633;32;20477;-41
2021/05/06 11:47:41;;;;;;;0.90;0.30;;;31.20;20.70;;;;;;4388558;32;20065;-40
2021/05/06 11:50:35;;;;;;;0.80;0.40;;;31.10;20.50;;;;;;4386759;32;20093;-41
2021/05/06 11:53:02;;;;;;;1.60;0.47;;;31.20;20.70;;;;;;4386491;32;20070;-42
2021/05/06 11:55:31;;;;;;;2.28;0.50;;;31.20;20.50;;;;;;4388425;32;20153;-42
2021/05/06 11:57:57;;;;;;;4.03;0.43;;;31.30;20.50;;;;;;4388404;32;20127;-41
2021/05/06 12:00:29;;;;;;;0.82;0.40;;;31.40;20.40;;;;;;4388253;32;20070;-41
2021/05/06 12:03:06;;;;;;;0.65;0.35;;;31.50;20.50;;;;;;4388198;32;20574;-42
2021/05/06 12:05:58;;;;;;;2.35;0.70;;;31.50;20.50;;;;;;4388309;32;20065;-41
2021/05/06 12:08:33;;;;;;;0.62;0.40;;;31.40;20.60;;;;;;4388246;32;20089;-40
2021/05/06 12:11:03;;;;;;;2.15;0.50;;;31.50;20.50;;;;;;4388571;32;20186;-42
2021/05/06 12:13:34;;;;;;;2.75;0.43;;;31.50;20.50;;;;;;4387913;32;20069;-42
2021/05/06 12:16:23;;;;;;;0.98;0.50;;;31.50;20.50;;;;;;4386528;32;20073;-42
2021/05/06 12:19:03;;;;;;;1.02;0.45;;;31.50;20.50;;;;;;4372910;32;20089;-42
2021/05/06 12:21:41;;;;;;;0.65;0.45;;;31.40;20.30;;;;;;4372932;32;20066;-42
2021/05/06 12:24:10;;;;;;;4.07;0.60;;;31.40;20.50;;;;;;4372933;32;20145;-41
2021/05/06 12:26:37;;;;;;;2.72;0.47;;;31.30;20.40;;;;;;4373129;32;20061;-40
2021/05/06 12:29:04;;;;;;;2.12;0.50;;;31.30;20.40;;;;;;4373132;32;20069;-41
2021/05/06 12:31:42;;;;;;;2.72;0.65;;;31.30;20.40;;;;;;4371191;32;20104;-41
2021/05/06 12:34:20;;;;;;;1.83;0.60;;;31.30;20.50;;;;;;4370471;32;20200;-40
2021/05/06 12:36:58;;;;;;;1.87;0.62;;;31.30;20.40;;;;;;4369601;32;20085;-40
2021/05/06 12:39:24;;;;;;;2.90;0.60;;;31.30;20.40;;;;;;4367879;32;20110;-41
2021/05/06 12:41:56;;;;;;;2.45;0.60;;;31.40;20.40;;;;;;4370490;32;20070;-41
2021/05/06 12:44:46;;;;;;;2.10;0.60;;;31.30;20.50;;;;;;4372735;32;20058;-42
2021/05/06 12:47:19;;;;;;;1.98;0.82;;;31.30;20.50;;;;;;4372666;32;20166;-40
2021/05/06 12:49:48;;;;;;;4.18;0.50;;;31.20;20.40;;;;;;4372375;32;20161;-42
2021/05/06 12:52:43;;;;;;;1.48;0.55;;;31.10;20.60;;;;;;4371184;32;20603;-41
2021/05/06 12:55:25;;;;;;;2.00;0.45;;;31.10;20.70;;;;;;4372205;32;20197;-43
2021/05/06 12:58:14;;;;;;;3.10;0.60;;;31.10;20.60;;;;;;4372110;32;20062;-41
2021/05/06 13:00:46;;;;;;;0.60;0.50;;;31.10;20.70;;;;;;4371851;32;20082;-42
2021/05/06 13:03:14;;;;;;;1.80;0.60;;;31.00;20.50;;;;;;4371974;32;20078;-41
2021/05/06 13:05:49;;;;;;;2.05;0.50;;;31.00;20.30;;;;;;4372775;32;20090;-41
2021/05/06 13:08:16;;;;;;;1.00;0.70;;;31.00;20.30;;;;;;4375690;32;20466;-40
2021/05/06 13:10:45;;;;;;;1.50;0.50;;;30.90;20.40;;;;;;4373969;32;20122;-44
2021/05/06 13:13:33;;;;;;;2.70;0.50;;;30.90;21.00;;;;;;4374397;32;20169;-41
2021/05/06 13:15:59;;;;;;;4.30;0.88;;;30.80;20.40;;;;;;4375230;32;20063;-40
2021/05/06 13:18:25;;;;;;;2.03;0.50;;;30.70;20.60;;;;;;4375604;32;20136;-41
2021/05/06 13:20:52;;;;;;;3.17;0.50;;;30.50;21.10;;;;;;4373601;32;20082;-37
2021/05/06 13:23:33;;;;;;;2.15;0.40;;;30.40;20.70;;;;;;4375973;32;20077;-41
2021/05/06 13:26:04;;;;;;;4.10;1.05;;;30.40;20.80;;;;;;4375584;32;20145;-41
2021/05/06 13:28:34;;;;;;;4.47;0.50;;;30.50;20.90;;;;;;4375281;32;20136;-42
2021/05/06 13:31:17;;;;;;;3.55;0.50;;;30.50;20.80;;;;;;4375612;32;20057;-42
2021/05/06 13:33:49;;;;;;;1.92;0.60;;;30.60;20.80;;;;;;4374189;32;20166;-41
2021/05/06 13:36:21;;;;;;;5.22;0.50;;;30.60;20.60;;;;;;4374813;32;20070;-41
2021/05/06 13:38:54;;;;;;;0.85;0.45;;;30.60;20.60;;;;;;4375392;32;20088;-41
2021/05/06 13:41:26;;;;;;;3.92;0.50;;;30.50;20.50;;;;;;4375262;32;20437;-40
2021/05/06 13:43:53;;;;;;;0.82;0.40;;;30.30;20.60;;;;;;4375208;32;20077;-40
2021/05/06 13:46:20;;;;;;;0.70;0.50;;;30.10;20.50;;;;;;4373939;32;20062;-42
2021/05/06 13:48:46;;;;;;;1.08;0.30;;;30.00;20.80;;;;;;4374961;32;20077;-42
2021/05/06 13:51:14;;;;;;;2.83;0.40;;;29.80;20.90;;;;;;4375651;32;20065;-41
2021/05/06 13:53:41;;;;;;;3.37;0.47;;;29.60;21.00;;;;;;4374822;32;20235;-41
2021/05/06 13:56:08;;;;;;;3.50;0.93;;;29.50;21.00;;;;;;4375053;32;20065;-42
2021/05/06 13:58:36;;;;;;;0.80;0.37;;;29.30;21.10;;;;;;4360840;32;20100;-38
2021/05/06 14:01:06;;;;;;;5.12;0.80;;;29.20;21.10;;;;;;4373429;32;20133;-39
2021/05/06 14:03:33;;;;;;;3.53;0.55;;;29.00;21.20;;;;;;4375150;32;20136;-40
2021/05/06 14:06:00;;;;;;;0.82;0.50;;;28.90;21.10;;;;;;4374442;32;20135;-40
2021/05/06 14:08:30;;;;;;;6.75;0.88;;;28.90;21.20;;;;;;4372819;32;20202;-39
2021/05/06 14:10:56;;;;;;;1.08;0.47;;;28.90;21.30;;;;;;4373030;32;20228;-37
2021/05/06 14:13:26;;;;;;;7.12;1.12;;;28.90;21.20;;;;;;4374666;32;20074;-41
2021/05/06 14:15:53;;;;;;;1.58;0.40;;;28.90;21.30;;;;;;4373499;32;20060;-41
2021/05/06 14:18:20;;;;;;;2.62;0.70;;;29.00;21.80;;;;;;4372431;32;20062;-40
2021/05/06 14:20:47;;;;;;;3.08;0.45;;;29.00;21.10;;;;;;4374485;32;20071;-40
2021/05/06 14:23:16;;;;;;;0.98;0.40;;;28.90;21.00;;;;;;4374798;32;20074;-41
2021/05/06 14:25:43;;;;;;;2.40;0.70;;;28.90;21.10;;;;;;4374207;32;20101;-40
2021/05/06 14:28:10;;;;;;;1.20;0.50;;;28.80;21.20;;;;;;4372695;32;20506;-41
2021/05/06 14:30:36;;;;;;;6.55;0.70;;;28.70;21.40;;;;;;4374449;32;20140;-39
2021/05/06 14:33:03;;;;;;;0.95;0.40;;;28.70;21.40;;;;;;4374351;32;20055;-41
2021/05/06 14:35:30;;;;;;;1.35;0.50;;;28.60;21.40;;;;;;4374241;32;20093;-41
2021/05/06 14:37:58;;;;;;;1.12;0.60;;;28.60;21.50;;;;;;4374323;32;20158;-40
2021/05/06 14:40:24;;;;;;;4.10;0.50;;;28.50;21.70;;;;;;4374426;32;20077;-41
2021/05/06 14:42:51;;;;;;;2.37;0.55;;;28.40;21.60;;;;;;4374125;32;20145;-42
2021/05/06 14:45:17;;;;;;;6.60;0.52;;;28.30;21.70;;;;;;4374744;32;20531;-40
2021/05/06 14:47:44;;;;;;;7.30;0.47;;;28.30;21.80;;;;;;4372823;32;20067;-42
2021/05/06 14:50:12;;;;;;;3.97;0.65;;;28.20;21.80;;;;;;4374099;32;20058;-40
2021/05/06 14:52:38;;;;;;;4.43;0.93;;;28.20;21.90;;;;;;4374376;32;20077;-40
2021/05/06 14:55:07;;;;;;;1.42;0.40;;;28.20;22.00;;;;;;4374245;32;20081;-42
2021/05/06 14:57:34;;;;;;;3.92;0.50;;;28.20;21.90;;;;;;4373959;32;20157;-38
2021/05/06 15:00:07;;;;;;;2.45;0.60;;;28.10;21.90;;;;;;4374026;32;20747;-42
2021/05/06 15:02:35;;;;;;;1.70;0.52;;;28.10;22.00;;;;;;4374079;32;20066;-42
2021/05/06 15:05:02;;;;;;;3.20;0.50;;;28.10;21.90;;;;;;4374370;32;20239;-40
2021/05/06 15:07:28;;;;;;;4.82;0.60;;;28.10;22.00;;;;;;4374131;32;20069;-37
2021/05/06 15:09:55;;;;;;;8.32;0.70;;;28.00;21.90;;;;;;4374523;32;20162;-39
2021/05/06 15:12:21;;;;;;;5.53;0.85;;;27.90;21.90;;;;;;4372566;32;20502;-41
2021/05/06 15:14:48;;;;;;;1.40;0.70;;;27.80;22.10;;;;;;4373607;32;20086;-42
2021/05/06 15:17:14;;;;;;;4.43;0.52;;;27.80;22.10;;;;;;4373678;32;20081;-40
2021/05/06 15:19:41;;;;;;;2.28;0.50;;;27.80;22.00;;;;;;4374107;32;20069;-41
2021/05/06 15:22:07;;;;;;;5.12;0.60;;;27.70;21.90;;;;;;4373839;32;20062;-40
2021/05/06 15:24:34;;;;;;;1.75;0.60;;;27.70;22.00;;;;;;4355889;32;20078;-42
2021/05/06 15:27:00;;;;;;;8.20;1.10;;;27.60;22.00;;;;;;4326032;33;20096;-41
2021/05/06 15:29:27;;;;;;;4.30;0.80;;;27.50;22.00;;;;;;4326556;33;20532;-41
2021/05/06 15:31:54;;;;;;;4.80;0.70;;;27.40;22.10;;;;;;4326633;33;20191;-40
2021/05/06 15:34:21;;;;;;;2.80;0.57;;;27.40;22.10;;;;;;4326561;33;20685;-41
2021/05/06 15:36:47;;;;;;;3.30;0.60;;;27.30;22.20;;;;;;4326861;33;20067;-42
2021/05/06 15:39:14;;;;;;;2.60;0.60;;;27.10;22.20;;;;;;4326277;33;20078;-42
2021/05/06 15:41:40;;;;;;;4.35;0.70;;;27.00;22.30;;;;;;4326242;33;20637;-41
2021/05/06 15:44:07;;;;;;;2.42;0.68;;;26.90;22.40;;;;;;4326072;33;20087;-39
2021/05/06 15:46:34;;;;;;;2.30;1.08;;;26.80;22.60;;;;;;4326367;33;20097;-42
2021/05/06 15:49:02;;;;;;;7.82;0.60;;;26.60;22.70;;;;;;4326321;33;20144;-37
2021/05/06 15:51:30;;;;;;;2.95;0.62;;;26.50;22.80;;;;;;4326268;33;20082;-42
2021/05/06 15:53:58;;;;;;;4.55;1.10;;;26.40;22.80;;;;;;4326731;33;20074;-41
2021/05/06 15:56:24;;;;;;;2.65;0.80;;;26.40;23.00;;;;;;4326133;33;20586;-40